sensor_id;sensor_type;location;lat;lon;timestamp;P1;durP1;ratioP1;P2;durP2;ratioP2
43114;SDS011;28727;50.068;14.452;2023-03-11T00:02:30;3.17;;;1.70;;
43114;SDS011;28727;50.068;14.452;2023-03-11T00:05:02;2.63;;;1.70;;
43114;SDS011;28727;50.068;14.452;2023-03-11T00:07:34;3.55;;;1.40;;
43114;SDS011;28727;50.068;14.452;2023-03-11T00:10:09;2.90;;;1.75;;
43114;SDS011;28727;50.068;14.452;2023-03-11T00:13:04;4.80;;;2.70;;
43114;SDS011;28727;50.068;14.452;2023-03-11T00:15:37;3.87;;;1.60;;
43114;SDS011;28727;50.068;14.452;2023-03-11T00:18:10;2.97;;;1.75;;
43114;SDS011;28727;50.068;14.452;2023-03-11T00:20:42;1.90;;;1.20;;
43114;SDS011;28727;50.068;14.452;2023-03-11T00:23:15;0.80;;;0.70;;
43114;SDS011;28727;50.068;14.452;2023-03-11T00:25:47;5.03;;;0.80;;
43114;SDS011;28727;50.068;14.452;2023-03-11T00:28:19;0.70;;;0.68;;
43114;SDS011;28727;50.068;14.452;2023-03-11T00:30:55;1.48;;;0.77;;
43114;SDS011;28727;50.068;14.452;2023-03-11T00:33:27;0.77;;;0.77;;
43114;SDS011;28727;50.068;14.452;2023-03-11T00:35:59;5.35;;;1.10;;
43114;SDS011;28727;50.068;14.452;2023-03-11T00:38:30;2.22;;;1.10;;
43114;SDS011;28727;50.068;14.452;2023-03-11T00:41:02;1.38;;;1.20;;
43114;SDS011;28727;50.068;14.452;2023-03-11T00:43:34;1.52;;;1.10;;
43114;SDS011;28727;50.068;14.452;2023-03-11T00:46:07;1.70;;;1.20;;
43114;SDS011;28727;50.068;14.452;2023-03-11T00:48:40;1.70;;;1.23;;
43114;SDS011;28727;50.068;14.452;2023-03-11T00:51:12;3.17;;;1.20;;
43114;SDS011;28727;50.068;14.452;2023-03-11T00:53:45;1.60;;;1.30;;
43114;SDS011;28727;50.068;14.452;2023-03-11T00:56:17;2.58;;;1.52;;
43114;SDS011;28727;50.068;14.452;2023-03-11T00:58:49;1.75;;;1.20;;
43114;SDS011;28727;50.068;14.452;2023-03-11T01:01:21;2.30;;;1.08;;
43114;SDS011;28727;50.068;14.452;2023-03-11T01:03:54;1.75;;;1.27;;
43114;SDS011;28727;50.068;14.452;2023-03-11T01:06:25;1.42;;;1.20;;
43114;SDS011;28727;50.068;14.452;2023-03-11T01:09:09;2.35;;;1.48;;
43114;SDS011;28727;50.068;14.452;2023-03-11T01:11:41;1.23;;;1.00;;
43114;SDS011;28727;50.068;14.452;2023-03-11T01:14:13;1.38;;;1.08;;
43114;SDS011;28727;50.068;14.452;2023-03-11T01:16:45;1.90;;;1.17;;
43114;SDS011;28727;50.068;14.452;2023-03-11T01:19:16;1.80;;;1.10;;
43114;SDS011;28727;50.068;14.452;2023-03-11T01:21:51;1.13;;;0.98;;
43114;SDS011;28727;50.068;14.452;2023-03-11T01:24:23;1.55;;;1.15;;
43114;SDS011;28727;50.068;14.452;2023-03-11T01:26:54;1.42;;;1.00;;
43114;SDS011;28727;50.068;14.452;2023-03-11T01:29:28;1.55;;;1.25;;
43114;SDS011;28727;50.068;14.452;2023-03-11T01:31:59;1.52;;;1.23;;
43114;SDS011;28727;50.068;14.452;2023-03-11T01:34:31;1.73;;;1.00;;
43114;SDS011;28727;50.068;14.452;2023-03-11T01:37:06;1.10;;;1.00;;
43114;SDS011;28727;50.068;14.452;2023-03-11T01:39:37;1.38;;;0.95;;
43114;SDS011;28727;50.068;14.452;2023-03-11T01:42:11;2.17;;;1.15;;
43114;SDS011;28727;50.068;14.452;2023-03-11T01:44:45;1.27;;;1.00;;
43114;SDS011;28727;50.068;14.452;2023-03-11T01:47:34;1.13;;;1.00;;
43114;SDS011;28727;50.068;14.452;2023-03-11T01:50:12;1.73;;;1.00;;
43114;SDS011;28727;50.068;14.452;2023-03-11T01:52:44;1.58;;;1.10;;
43114;SDS011;28727;50.068;14.452;2023-03-11T01:55:18;1.58;;;1.20;;
43114;SDS011;28727;50.068;14.452;2023-03-11T01:57:50;1.50;;;1.20;;
43114;SDS011;28727;50.068;14.452;2023-03-11T02:00:25;1.48;;;1.13;;
43114;SDS011;28727;50.068;14.452;2023-03-11T02:02:57;1.60;;;0.98;;
43114;SDS011;28727;50.068;14.452;2023-03-11T02:05:32;2.83;;;1.20;;
43114;SDS011;28727;50.068;14.452;2023-03-11T02:08:05;1.63;;;1.17;;
43114;SDS011;28727;50.068;14.452;2023-03-11T02:10:38;1.77;;;1.25;;
43114;SDS011;28727;50.068;14.452;2023-03-11T02:13:12;2.37;;;1.40;;
43114;SDS011;28727;50.068;14.452;2023-03-11T02:15:44;2.20;;;1.55;;
43114;SDS011;28727;50.068;14.452;2023-03-11T02:18:16;2.00;;;1.40;;
43114;SDS011;28727;50.068;14.452;2023-03-11T02:24:04;2.10;;;1.33;;
43114;SDS011;28727;50.068;14.452;2023-03-11T02:29:26;2.92;;;1.42;;
43114;SDS011;28727;50.068;14.452;2023-03-11T02:32:01;1.98;;;1.35;;
43114;SDS011;28727;50.068;14.452;2023-03-11T02:34:37;1.98;;;1.45;;
43114;SDS011;28727;50.068;14.452;2023-03-11T02:37:11;2.15;;;1.40;;
43114;SDS011;28727;50.068;14.452;2023-03-11T02:39:50;2.30;;;1.50;;
43114;SDS011;28727;50.068;14.452;2023-03-11T02:42:28;2.30;;;1.65;;
43114;SDS011;28727;50.068;14.452;2023-03-11T02:45:12;2.38;;;1.40;;
43114;SDS011;28727;50.068;14.452;2023-03-11T02:48:01;3.08;;;1.77;;
43114;SDS011;28727;50.068;14.452;2023-03-11T02:50:35;2.97;;;1.70;;
43114;SDS011;28727;50.068;14.452;2023-03-11T02:53:07;1.92;;;1.45;;
43114;SDS011;28727;50.068;14.452;2023-03-11T02:55:40;2.58;;;1.52;;
43114;SDS011;28727;50.068;14.452;2023-03-11T02:58:12;3.38;;;2.13;;
43114;SDS011;28727;50.068;14.452;2023-03-11T03:00:44;2.75;;;1.60;;
43114;SDS011;28727;50.068;14.452;2023-03-11T03:03:16;3.25;;;1.63;;
43114;SDS011;28727;50.068;14.452;2023-03-11T03:05:49;2.88;;;1.73;;
43114;SDS011;28727;50.068;14.452;2023-03-11T03:08:21;2.67;;;1.67;;
43114;SDS011;28727;50.068;14.452;2023-03-11T03:10:52;2.50;;;1.70;;
43114;SDS011;28727;50.068;14.452;2023-03-11T03:13:25;2.45;;;1.73;;
43114;SDS011;28727;50.068;14.452;2023-03-11T03:15:59;2.65;;;1.80;;
43114;SDS011;28727;50.068;14.452;2023-03-11T03:18:31;2.60;;;1.73;;
43114;SDS011;28727;50.068;14.452;2023-03-11T03:21:03;2.53;;;1.92;;
43114;SDS011;28727;50.068;14.452;2023-03-11T03:23:36;2.80;;;1.58;;
43114;SDS011;28727;50.068;14.452;2023-03-11T03:26:10;2.40;;;1.40;;
43114;SDS011;28727;50.068;14.452;2023-03-11T03:28:45;6.35;;;1.70;;
43114;SDS011;28727;50.068;14.452;2023-03-11T03:31:18;2.42;;;1.40;;
43114;SDS011;28727;50.068;14.452;2023-03-11T03:33:49;2.55;;;1.50;;
43114;SDS011;28727;50.068;14.452;2023-03-11T03:36:21;2.38;;;1.40;;
43114;SDS011;28727;50.068;14.452;2023-03-11T03:38:59;1.92;;;1.23;;
43114;SDS011;28727;50.068;14.452;2023-03-11T03:41:36;2.40;;;1.17;;
43114;SDS011;28727;50.068;14.452;2023-03-11T03:44:08;2.90;;;1.35;;
43114;SDS011;28727;50.068;14.452;2023-03-11T03:46:40;1.88;;;1.33;;
43114;SDS011;28727;50.068;14.452;2023-03-11T03:49:13;2.28;;;1.30;;
43114;SDS011;28727;50.068;14.452;2023-03-11T03:51:45;1.70;;;1.10;;
43114;SDS011;28727;50.068;14.452;2023-03-11T03:54:27;1.98;;;1.20;;
43114;SDS011;28727;50.068;14.452;2023-03-11T03:56:59;2.10;;;1.40;;
43114;SDS011;28727;50.068;14.452;2023-03-11T03:59:33;1.83;;;1.30;;
43114;SDS011;28727;50.068;14.452;2023-03-11T04:02:05;3.88;;;1.35;;
43114;SDS011;28727;50.068;14.452;2023-03-11T04:04:40;1.63;;;1.13;;
43114;SDS011;28727;50.068;14.452;2023-03-11T04:07:14;1.45;;;1.10;;
43114;SDS011;28727;50.068;14.452;2023-03-11T04:09:45;2.28;;;1.20;;
43114;SDS011;28727;50.068;14.452;2023-03-11T04:12:18;1.00;;;0.90;;
43114;SDS011;28727;50.068;14.452;2023-03-11T04:14:50;1.52;;;1.17;;
43114;SDS011;28727;50.068;14.452;2023-03-11T04:17:22;2.38;;;1.60;;
43114;SDS011;28727;50.068;14.452;2023-03-11T04:19:56;1.15;;;0.93;;
43114;SDS011;28727;50.068;14.452;2023-03-11T04:22:28;1.55;;;1.15;;
43114;SDS011;28727;50.068;14.452;2023-03-11T04:24:59;1.10;;;0.90;;
43114;SDS011;28727;50.068;14.452;2023-03-11T04:27:33;2.45;;;1.23;;
43114;SDS011;28727;50.068;14.452;2023-03-11T04:30:07;1.55;;;1.13;;
43114;SDS011;28727;50.068;14.452;2023-03-11T04:32:40;1.52;;;1.08;;
43114;SDS011;28727;50.068;14.452;2023-03-11T04:35:12;1.27;;;1.08;;
43114;SDS011;28727;50.068;14.452;2023-03-11T04:37:44;1.63;;;1.27;;
43114;SDS011;28727;50.068;14.452;2023-03-11T04:40:17;1.90;;;1.17;;
43114;SDS011;28727;50.068;14.452;2023-03-11T04:42:49;1.77;;;1.20;;
43114;SDS011;28727;50.068;14.452;2023-03-11T04:45:23;2.72;;;1.33;;
43114;SDS011;28727;50.068;14.452;2023-03-11T04:47:59;2.53;;;1.50;;
43114;SDS011;28727;50.068;14.452;2023-03-11T04:50:33;2.00;;;1.48;;
43114;SDS011;28727;50.068;14.452;2023-03-11T04:53:05;3.10;;;1.17;;
43114;SDS011;28727;50.068;14.452;2023-03-11T04:55:37;1.30;;;1.00;;
43114;SDS011;28727;50.068;14.452;2023-03-11T04:58:10;1.98;;;1.50;;
43114;SDS011;28727;50.068;14.452;2023-03-11T05:00:43;2.25;;;1.52;;
43114;SDS011;28727;50.068;14.452;2023-03-11T05:03:17;1.95;;;1.30;;
43114;SDS011;28727;50.068;14.452;2023-03-11T05:05:49;1.80;;;1.48;;
43114;SDS011;28727;50.068;14.452;2023-03-11T05:10:56;4.40;;;1.40;;
43114;SDS011;28727;50.068;14.452;2023-03-11T05:13:28;1.75;;;1.20;;
43114;SDS011;28727;50.068;14.452;2023-03-11T05:16:00;2.00;;;1.38;;
43114;SDS011;28727;50.068;14.452;2023-03-11T05:18:32;1.98;;;1.20;;
43114;SDS011;28727;50.068;14.452;2023-03-11T05:21:05;1.80;;;1.27;;
43114;SDS011;28727;50.068;14.452;2023-03-11T05:23:39;1.88;;;1.00;;
43114;SDS011;28727;50.068;14.452;2023-03-11T05:26:11;2.58;;;1.58;;
43114;SDS011;28727;50.068;14.452;2023-03-11T05:28:45;2.15;;;1.40;;
43114;SDS011;28727;50.068;14.452;2023-03-11T05:31:17;2.22;;;1.23;;
43114;SDS011;28727;50.068;14.452;2023-03-11T05:33:49;2.17;;;1.52;;
43114;SDS011;28727;50.068;14.452;2023-03-11T05:36:21;2.13;;;1.20;;
43114;SDS011;28727;50.068;14.452;2023-03-11T05:38:52;2.05;;;1.30;;
43114;SDS011;28727;50.068;14.452;2023-03-11T05:41:27;1.33;;;0.88;;
43114;SDS011;28727;50.068;14.452;2023-03-11T05:46:32;2.10;;;1.35;;
43114;SDS011;28727;50.068;14.452;2023-03-11T05:49:05;1.45;;;1.30;;
43114;SDS011;28727;50.068;14.452;2023-03-11T05:51:37;2.28;;;1.50;;
43114;SDS011;28727;50.068;14.452;2023-03-11T05:54:08;2.05;;;1.27;;
43114;SDS011;28727;50.068;14.452;2023-03-11T05:56:48;1.98;;;1.20;;
43114;SDS011;28727;50.068;14.452;2023-03-11T05:59:21;1.67;;;1.10;;
43114;SDS011;28727;50.068;14.452;2023-03-11T06:02:00;2.28;;;1.60;;
43114;SDS011;28727;50.068;14.452;2023-03-11T06:04:32;1.98;;;1.15;;
43114;SDS011;28727;50.068;14.452;2023-03-11T06:07:05;2.22;;;1.20;;
43114;SDS011;28727;50.068;14.452;2023-03-11T06:09:43;2.67;;;1.40;;
43114;SDS011;28727;50.068;14.452;2023-03-11T06:12:19;1.75;;;1.13;;
43114;SDS011;28727;50.068;14.452;2023-03-11T06:15:07;1.63;;;1.10;;
43114;SDS011;28727;50.068;14.452;2023-03-11T06:17:40;1.75;;;1.25;;
43114;SDS011;28727;50.068;14.452;2023-03-11T06:20:13;4.43;;;1.73;;
43114;SDS011;28727;50.068;14.452;2023-03-11T06:22:49;1.85;;;1.02;;
43114;SDS011;28727;50.068;14.452;2023-03-11T06:25:24;2.42;;;1.30;;
43114;SDS011;28727;50.068;14.452;2023-03-11T06:27:57;2.25;;;1.10;;
43114;SDS011;28727;50.068;14.452;2023-03-11T06:30:31;1.60;;;1.13;;
43114;SDS011;28727;50.068;14.452;2023-03-11T06:33:15;1.52;;;1.08;;
43114;SDS011;28727;50.068;14.452;2023-03-11T06:35:54;1.98;;;1.20;;
43114;SDS011;28727;50.068;14.452;2023-03-11T06:38:30;2.20;;;1.23;;
43114;SDS011;28727;50.068;14.452;2023-03-11T06:41:03;2.00;;;1.10;;
43114;SDS011;28727;50.068;14.452;2023-03-11T06:43:38;3.08;;;1.45;;
43114;SDS011;28727;50.068;14.452;2023-03-11T06:46:11;1.83;;;1.20;;
43114;SDS011;28727;50.068;14.452;2023-03-11T06:48:47;2.72;;;1.17;;
43114;SDS011;28727;50.068;14.452;2023-03-11T06:51:24;1.55;;;1.10;;
43114;SDS011;28727;50.068;14.452;2023-03-11T06:53:56;1.50;;;1.00;;
43114;SDS011;28727;50.068;14.452;2023-03-11T06:56:29;3.90;;;1.80;;
43114;SDS011;28727;50.068;14.452;2023-03-11T06:59:06;1.38;;;1.00;;
43114;SDS011;28727;50.068;14.452;2023-03-11T07:01:38;2.10;;;1.40;;
43114;SDS011;28727;50.068;14.452;2023-03-11T07:04:12;1.98;;;1.10;;
43114;SDS011;28727;50.068;14.452;2023-03-11T07:06:45;1.45;;;0.90;;
43114;SDS011;28727;50.068;14.452;2023-03-11T07:09:22;2.58;;;1.33;;
43114;SDS011;28727;50.068;14.452;2023-03-11T07:11:56;2.50;;;1.50;;
43114;SDS011;28727;50.068;14.452;2023-03-11T07:14:33;2.13;;;1.13;;
43114;SDS011;28727;50.068;14.452;2023-03-11T07:17:05;1.98;;;1.30;;
43114;SDS011;28727;50.068;14.452;2023-03-11T07:19:42;2.95;;;1.50;;
43114;SDS011;28727;50.068;14.452;2023-03-11T07:22:14;4.03;;;1.60;;
43114;SDS011;28727;50.068;14.452;2023-03-11T07:24:48;2.05;;;1.33;;
43114;SDS011;28727;50.068;14.452;2023-03-11T07:29:53;1.77;;;1.30;;
43114;SDS011;28727;50.068;14.452;2023-03-11T07:32:25;3.17;;;1.52;;
43114;SDS011;28727;50.068;14.452;2023-03-11T07:34:56;3.70;;;1.70;;
43114;SDS011;28727;50.068;14.452;2023-03-11T07:37:28;2.70;;;1.63;;
43114;SDS011;28727;50.068;14.452;2023-03-11T07:40:00;2.55;;;1.70;;
43114;SDS011;28727;50.068;14.452;2023-03-11T07:42:32;3.90;;;2.17;;
43114;SDS011;28727;50.068;14.452;2023-03-11T07:45:05;2.63;;;1.65;;
43114;SDS011;28727;50.068;14.452;2023-03-11T07:47:38;3.63;;;1.88;;
43114;SDS011;28727;50.068;14.452;2023-03-11T07:50:10;3.40;;;2.13;;
43114;SDS011;28727;50.068;14.452;2023-03-11T07:52:42;4.03;;;1.95;;
43114;SDS011;28727;50.068;14.452;2023-03-11T07:55:14;2.90;;;1.65;;
43114;SDS011;28727;50.068;14.452;2023-03-11T07:57:47;2.55;;;1.75;;
43114;SDS011;28727;50.068;14.452;2023-03-11T08:00:19;3.92;;;1.65;;
43114;SDS011;28727;50.068;14.452;2023-03-11T08:02:51;2.47;;;1.70;;
43114;SDS011;28727;50.068;14.452;2023-03-11T08:05:23;2.50;;;1.70;;
43114;SDS011;28727;50.068;14.452;2023-03-11T08:07:55;3.05;;;1.90;;
43114;SDS011;28727;50.068;14.452;2023-03-11T08:10:27;3.95;;;2.17;;
43114;SDS011;28727;50.068;14.452;2023-03-11T08:12:59;2.15;;;1.50;;
43114;SDS011;28727;50.068;14.452;2023-03-11T08:15:30;2.33;;;1.55;;
43114;SDS011;28727;50.068;14.452;2023-03-11T08:18:03;2.30;;;1.77;;
43114;SDS011;28727;50.068;14.452;2023-03-11T08:20:38;2.97;;;1.85;;
43114;SDS011;28727;50.068;14.452;2023-03-11T08:23:10;3.20;;;1.80;;
43114;SDS011;28727;50.068;14.452;2023-03-11T08:25:42;2.70;;;1.75;;
43114;SDS011;28727;50.068;14.452;2023-03-11T08:28:13;3.10;;;1.80;;
43114;SDS011;28727;50.068;14.452;2023-03-11T08:30:46;3.05;;;1.80;;
43114;SDS011;28727;50.068;14.452;2023-03-11T08:33:18;2.78;;;1.80;;
43114;SDS011;28727;50.068;14.452;2023-03-11T08:35:50;2.05;;;1.48;;
43114;SDS011;28727;50.068;14.452;2023-03-11T08:38:22;3.53;;;1.90;;
43114;SDS011;28727;50.068;14.452;2023-03-11T08:40:53;3.75;;;1.67;;
43114;SDS011;28727;50.068;14.452;2023-03-11T08:43:25;2.08;;;1.30;;
43114;SDS011;28727;50.068;14.452;2023-03-11T08:46:01;2.58;;;1.67;;
43114;SDS011;28727;50.068;14.452;2023-03-11T08:48:35;3.53;;;1.95;;
43114;SDS011;28727;50.068;14.452;2023-03-11T08:51:09;3.70;;;1.70;;
43114;SDS011;28727;50.068;14.452;2023-03-11T08:53:43;3.28;;;2.00;;
43114;SDS011;28727;50.068;14.452;2023-03-11T08:56:15;2.88;;;2.05;;
43114;SDS011;28727;50.068;14.452;2023-03-11T08:58:47;2.28;;;1.63;;
43114;SDS011;28727;50.068;14.452;2023-03-11T09:01:21;3.75;;;2.03;;
43114;SDS011;28727;50.068;14.452;2023-03-11T09:03:54;3.40;;;2.10;;
43114;SDS011;28727;50.068;14.452;2023-03-11T09:06:25;2.70;;;1.67;;
43114;SDS011;28727;50.068;14.452;2023-03-11T09:11:32;3.05;;;1.90;;
43114;SDS011;28727;50.068;14.452;2023-03-11T09:14:07;3.72;;;1.90;;
43114;SDS011;28727;50.068;14.452;2023-03-11T09:16:39;5.15;;;1.90;;
43114;SDS011;28727;50.068;14.452;2023-03-11T09:19:11;3.65;;;1.92;;
43114;SDS011;28727;50.068;14.452;2023-03-11T09:21:43;5.03;;;1.73;;
43114;SDS011;28727;50.068;14.452;2023-03-11T09:24:14;5.32;;;2.25;;
43114;SDS011;28727;50.068;14.452;2023-03-11T09:26:46;2.92;;;1.33;;
43114;SDS011;28727;50.068;14.452;2023-03-11T09:29:18;2.72;;;1.55;;
43114;SDS011;28727;50.068;14.452;2023-03-11T09:31:50;2.17;;;1.45;;
43114;SDS011;28727;50.068;14.452;2023-03-11T09:34:22;3.67;;;1.90;;
43114;SDS011;28727;50.068;14.452;2023-03-11T09:36:53;3.13;;;1.92;;
43114;SDS011;28727;50.068;14.452;2023-03-11T09:39:25;3.03;;;1.65;;
43114;SDS011;28727;50.068;14.452;2023-03-11T09:41:58;5.15;;;2.10;;
43114;SDS011;28727;50.068;14.452;2023-03-11T09:44:51;5.35;;;2.03;;
43114;SDS011;28727;50.068;14.452;2023-03-11T09:50:13;3.33;;;2.45;;
43114;SDS011;28727;50.068;14.452;2023-03-11T09:55:50;3.38;;;2.25;;
43114;SDS011;28727;50.068;14.452;2023-03-11T10:04:12;3.45;;;2.25;;
43114;SDS011;28727;50.068;14.452;2023-03-11T10:06:48;4.00;;;2.00;;
43114;SDS011;28727;50.068;14.452;2023-03-11T10:12:15;4.32;;;2.50;;
43114;SDS011;28727;50.068;14.452;2023-03-11T10:20:44;3.58;;;2.45;;
43114;SDS011;28727;50.068;14.452;2023-03-11T10:23:44;4.60;;;2.63;;
43114;SDS011;28727;50.068;14.452;2023-03-11T10:26:35;4.30;;;2.30;;
43114;SDS011;28727;50.068;14.452;2023-03-11T10:29:18;3.38;;;2.67;;
43114;SDS011;28727;50.068;14.452;2023-03-11T10:34:45;3.72;;;2.30;;
43114;SDS011;28727;50.068;14.452;2023-03-11T10:37:25;2.92;;;2.13;;
43114;SDS011;28727;50.068;14.452;2023-03-11T10:40:21;4.20;;;2.72;;
43114;SDS011;28727;50.068;14.452;2023-03-11T10:43:15;2.95;;;1.80;;
43114;SDS011;28727;50.068;14.452;2023-03-11T10:45:50;3.63;;;2.47;;
43114;SDS011;28727;50.068;14.452;2023-03-11T10:48:24;5.93;;;2.58;;
43114;SDS011;28727;50.068;14.452;2023-03-11T10:51:01;4.00;;;2.57;;
43114;SDS011;28727;50.068;14.452;2023-03-11T10:53:49;3.72;;;2.08;;
43114;SDS011;28727;50.068;14.452;2023-03-11T11:07:37;4.80;;;2.55;;
43114;SDS011;28727;50.068;14.452;2023-03-11T11:10:16;3.50;;;2.50;;
43114;SDS011;28727;50.068;14.452;2023-03-11T11:12:56;3.70;;;2.20;;
43114;SDS011;28727;50.068;14.452;2023-03-11T11:15:36;3.75;;;2.85;;
43114;SDS011;28727;50.068;14.452;2023-03-11T11:18:17;4.53;;;2.40;;
43114;SDS011;28727;50.068;14.452;2023-03-11T11:23:25;4.18;;;2.38;;
43114;SDS011;28727;50.068;14.452;2023-03-11T11:26:02;3.47;;;2.28;;
43114;SDS011;28727;50.068;14.452;2023-03-11T11:28:36;4.55;;;2.30;;
43114;SDS011;28727;50.068;14.452;2023-03-11T11:31:24;3.70;;;2.20;;
43114;SDS011;28727;50.068;14.452;2023-03-11T11:33:56;4.50;;;2.80;;
43114;SDS011;28727;50.068;14.452;2023-03-11T11:36:29;3.63;;;2.42;;
43114;SDS011;28727;50.068;14.452;2023-03-11T11:39:10;3.50;;;2.15;;
43114;SDS011;28727;50.068;14.452;2023-03-11T11:41:49;5.88;;;2.20;;
43114;SDS011;28727;50.068;14.452;2023-03-11T11:44:27;4.35;;;2.92;;
43114;SDS011;28727;50.068;14.452;2023-03-11T11:49:51;3.90;;;2.58;;
43114;SDS011;28727;50.068;14.452;2023-03-11T11:52:36;4.65;;;2.72;;
43114;SDS011;28727;50.068;14.452;2023-03-11T11:55:25;4.50;;;2.92;;
43114;SDS011;28727;50.068;14.452;2023-03-11T11:57:59;4.03;;;2.73;;
43114;SDS011;28727;50.068;14.452;2023-03-11T12:03:53;4.50;;;2.67;;
43114;SDS011;28727;50.068;14.452;2023-03-11T12:06:50;4.95;;;3.28;;
43114;SDS011;28727;50.068;14.452;2023-03-11T12:12:42;6.25;;;3.20;;
43114;SDS011;28727;50.068;14.452;2023-03-11T12:15:20;5.30;;;3.65;;
43114;SDS011;28727;50.068;14.452;2023-03-11T12:18:01;4.50;;;3.15;;
43114;SDS011;28727;50.068;14.452;2023-03-11T12:20:39;5.90;;;3.40;;
43114;SDS011;28727;50.068;14.452;2023-03-11T12:31:48;4.15;;;2.75;;
43114;SDS011;28727;50.068;14.452;2023-03-11T12:34:20;7.07;;;3.50;;
43114;SDS011;28727;50.068;14.452;2023-03-11T12:36:56;4.30;;;2.92;;
43114;SDS011;28727;50.068;14.452;2023-03-11T12:39:33;7.95;;;3.45;;
43114;SDS011;28727;50.068;14.452;2023-03-11T12:44:43;6.53;;;3.72;;
43114;SDS011;28727;50.068;14.452;2023-03-11T12:47:17;6.95;;;3.92;;
43114;SDS011;28727;50.068;14.452;2023-03-11T12:52:27;7.47;;;4.18;;
43114;SDS011;28727;50.068;14.452;2023-03-11T12:57:40;5.22;;;3.45;;
43114;SDS011;28727;50.068;14.452;2023-03-11T13:05:50;5.10;;;3.15;;
43114;SDS011;28727;50.068;14.452;2023-03-11T13:14:26;5.35;;;3.35;;
43114;SDS011;28727;50.068;14.452;2023-03-11T13:19:51;5.00;;;2.85;;
43114;SDS011;28727;50.068;14.452;2023-03-11T13:22:40;5.82;;;3.80;;
43114;SDS011;28727;50.068;14.452;2023-03-11T13:42:36;5.60;;;3.58;;
43114;SDS011;28727;50.068;14.452;2023-03-11T13:45:33;8.27;;;3.85;;
43114;SDS011;28727;50.068;14.452;2023-03-11T13:48:13;6.03;;;3.75;;
43114;SDS011;28727;50.068;14.452;2023-03-11T13:51:01;9.05;;;4.07;;
43114;SDS011;28727;50.068;14.452;2023-03-11T13:53:38;6.72;;;3.75;;
43114;SDS011;28727;50.068;14.452;2023-03-11T13:56:17;6.68;;;4.10;;
43114;SDS011;28727;50.068;14.452;2023-03-11T14:01:51;5.03;;;3.75;;
43114;SDS011;28727;50.068;14.452;2023-03-11T14:04:32;6.53;;;4.00;;
43114;SDS011;28727;50.068;14.452;2023-03-11T14:07:12;8.02;;;4.13;;
43114;SDS011;28727;50.068;14.452;2023-03-11T14:09:50;5.55;;;3.90;;
43114;SDS011;28727;50.068;14.452;2023-03-11T14:12:22;6.82;;;4.38;;
43114;SDS011;28727;50.068;14.452;2023-03-11T14:14:55;5.78;;;3.60;;
43114;SDS011;28727;50.068;14.452;2023-03-11T14:17:31;6.25;;;3.90;;
43114;SDS011;28727;50.068;14.452;2023-03-11T14:20:21;6.72;;;4.43;;
43114;SDS011;28727;50.068;14.452;2023-03-11T14:22:58;7.93;;;4.03;;
43114;SDS011;28727;50.068;14.452;2023-03-11T14:25:30;7.85;;;4.43;;
43114;SDS011;28727;50.068;14.452;2023-03-11T14:28:02;5.80;;;4.00;;
43114;SDS011;28727;50.068;14.452;2023-03-11T14:30:35;6.18;;;3.92;;
43114;SDS011;28727;50.068;14.452;2023-03-11T14:33:19;6.32;;;3.83;;
43114;SDS011;28727;50.068;14.452;2023-03-11T14:35:54;5.47;;;3.50;;
43114;SDS011;28727;50.068;14.452;2023-03-11T14:41:04;5.70;;;3.35;;
43114;SDS011;28727;50.068;14.452;2023-03-11T14:43:38;5.90;;;3.13;;
43114;SDS011;28727;50.068;14.452;2023-03-11T14:46:17;5.70;;;4.10;;
43114;SDS011;28727;50.068;14.452;2023-03-11T14:48:53;4.97;;;3.35;;
43114;SDS011;28727;50.068;14.452;2023-03-11T14:51:26;5.18;;;3.17;;
43114;SDS011;28727;50.068;14.452;2023-03-11T14:54:05;5.03;;;3.40;;
43114;SDS011;28727;50.068;14.452;2023-03-11T14:57:02;5.63;;;3.47;;
43114;SDS011;28727;50.068;14.452;2023-03-11T14:59:40;4.93;;;3.20;;
43114;SDS011;28727;50.068;14.452;2023-03-11T15:02:32;5.25;;;3.50;;
43114;SDS011;28727;50.068;14.452;2023-03-11T15:05:08;6.53;;;3.90;;
43114;SDS011;28727;50.068;14.452;2023-03-11T15:07:47;4.93;;;3.28;;
43114;SDS011;28727;50.068;14.452;2023-03-11T15:10:21;7.35;;;3.58;;
43114;SDS011;28727;50.068;14.452;2023-03-11T15:13:04;5.18;;;3.53;;
43114;SDS011;28727;50.068;14.452;2023-03-11T15:15:54;5.60;;;3.35;;
43114;SDS011;28727;50.068;14.452;2023-03-11T15:18:33;6.28;;;3.78;;
43114;SDS011;28727;50.068;14.452;2023-03-11T15:21:13;6.38;;;3.75;;
43114;SDS011;28727;50.068;14.452;2023-03-11T15:26:25;7.30;;;3.97;;
43114;SDS011;28727;50.068;14.452;2023-03-11T15:29:00;6.85;;;3.53;;
43114;SDS011;28727;50.068;14.452;2023-03-11T15:31:42;5.95;;;3.85;;
43114;SDS011;28727;50.068;14.452;2023-03-11T15:37:18;7.18;;;3.55;;
43114;SDS011;28727;50.068;14.452;2023-03-11T15:39:51;6.95;;;3.70;;
43114;SDS011;28727;50.068;14.452;2023-03-11T15:42:24;6.32;;;3.67;;
43114;SDS011;28727;50.068;14.452;2023-03-11T15:47:33;7.15;;;3.63;;
43114;SDS011;28727;50.068;14.452;2023-03-11T15:50:17;7.72;;;4.93;;
43114;SDS011;28727;50.068;14.452;2023-03-11T15:52:57;4.43;;;3.00;;
43114;SDS011;28727;50.068;14.452;2023-03-11T15:55:29;5.50;;;3.55;;
43114;SDS011;28727;50.068;14.452;2023-03-11T15:58:02;5.90;;;3.63;;
43114;SDS011;28727;50.068;14.452;2023-03-11T16:00:38;5.35;;;3.90;;
43114;SDS011;28727;50.068;14.452;2023-03-11T16:03:13;7.25;;;4.32;;
43114;SDS011;28727;50.068;14.452;2023-03-11T16:05:45;6.72;;;3.75;;
43114;SDS011;28727;50.068;14.452;2023-03-11T16:08:17;6.82;;;3.78;;
43114;SDS011;28727;50.068;14.452;2023-03-11T16:10:49;4.82;;;3.67;;
43114;SDS011;28727;50.068;14.452;2023-03-11T16:13:20;6.63;;;3.97;;
43114;SDS011;28727;50.068;14.452;2023-03-11T16:15:53;5.97;;;4.03;;
43114;SDS011;28727;50.068;14.452;2023-03-11T16:18:25;6.78;;;3.70;;
43114;SDS011;28727;50.068;14.452;2023-03-11T16:20:57;5.95;;;3.42;;
43114;SDS011;28727;50.068;14.452;2023-03-11T16:23:30;7.93;;;3.33;;
43114;SDS011;28727;50.068;14.452;2023-03-11T16:26:21;5.63;;;3.42;;
43114;SDS011;28727;50.068;14.452;2023-03-11T16:28:53;8.32;;;3.92;;
43114;SDS011;28727;50.068;14.452;2023-03-11T16:31:28;6.57;;;4.03;;
43114;SDS011;28727;50.068;14.452;2023-03-11T16:34:01;7.40;;;4.45;;
43114;SDS011;28727;50.068;14.452;2023-03-11T16:36:33;8.60;;;3.85;;
43114;SDS011;28727;50.068;14.452;2023-03-11T16:39:05;6.70;;;3.90;;
43114;SDS011;28727;50.068;14.452;2023-03-11T16:41:40;9.05;;;5.20;;
43114;SDS011;28727;50.068;14.452;2023-03-11T16:44:14;8.05;;;4.65;;
43114;SDS011;28727;50.068;14.452;2023-03-11T16:46:46;6.93;;;3.88;;
43114;SDS011;28727;50.068;14.452;2023-03-11T16:49:18;5.93;;;4.03;;
43114;SDS011;28727;50.068;14.452;2023-03-11T16:51:49;5.95;;;4.20;;
43114;SDS011;28727;50.068;14.452;2023-03-11T16:54:21;9.15;;;4.82;;
43114;SDS011;28727;50.068;14.452;2023-03-11T16:56:53;7.50;;;4.57;;
43114;SDS011;28727;50.068;14.452;2023-03-11T16:59:25;6.55;;;4.45;;
43114;SDS011;28727;50.068;14.452;2023-03-11T17:01:57;7.50;;;4.45;;
43114;SDS011;28727;50.068;14.452;2023-03-11T17:04:29;6.88;;;4.40;;
43114;SDS011;28727;50.068;14.452;2023-03-11T17:07:04;8.88;;;4.65;;
43114;SDS011;28727;50.068;14.452;2023-03-11T17:09:37;7.38;;;3.92;;
43114;SDS011;28727;50.068;14.452;2023-03-11T17:12:09;9.20;;;4.20;;
43114;SDS011;28727;50.068;14.452;2023-03-11T17:14:44;7.18;;;3.35;;
43114;SDS011;28727;50.068;14.452;2023-03-11T17:17:16;8.10;;;4.55;;
43114;SDS011;28727;50.068;14.452;2023-03-11T17:19:49;8.80;;;4.40;;
43114;SDS011;28727;50.068;14.452;2023-03-11T17:22:21;7.25;;;4.75;;
43114;SDS011;28727;50.068;14.452;2023-03-11T17:24:53;8.43;;;4.30;;